Station: Lady Elliot Island  

  Atmospheric Gas Attenuation - ITU Rec 676-11   ----------------- dB/100km -----------------
Date Time Temp RH % AH g/m3 Dew Point Wind Direction Speed kph Gust kph Barometer mB Rainfall Since 9am 24GHz 47GHz 76GHz 122GHz 134GHz 241GHz
03/09 19:20 21.2 87 16.12 18.9 19 24 1020.9 0 35.1 36.7 67.8 179.0 192.4 667.4
03/09 19:10 21.1 87 16.03 18.9 20 24 1020.9 0 35.0 36.6 67.5 178.1 191.2 663.5
03/09 19:00 21 87 15.94 18.8 19 24 1020.8 0 34.8 36.4 67.1 177.2 190.1 659.6
03/09 18:50 20.9 88 16.03 18.8 20 22 1020.8 0 35.0 36.6 67.6 178.6 191.7 665.2
03/09 18:40 21 87 15.94 18.8 19 22 1020.7 0 34.8 36.4 67.1 177.2 190.1 659.5
03/09 18:30 20.9 88 16.03 18.8 19 24 1020.6 0 35.0 36.6 67.6 178.6 191.7 665.1
03/09 18:20 20.9 87 15.84 18.7 20 24 1020.6 0 34.6 36.3 66.7 176.2 188.8 655.1
03/09 18:10 21 87 15.94 18.8 20 26 1020.6 0 34.8 36.4 67.1 177.2 190.1 659.5
03/09 18:00 21 87 15.94 18.8 20 26 1020.5 0 34.8 36.4 67.1 177.2 190.1 659.4
03/09 17:50 20.9 87 15.84 18.7 19 22 1020.4 0 34.6 36.3 66.7 176.2 188.8 655.0
03/09 17:40 21 86 15.75 18.6 19 24 1020.4 0 34.4 36.1 66.2 174.9 187.2 649.4
03/09 17:30 21.1 85 15.66 18.5 19 22 1020.4 0 34.2 35.9 65.7 173.5 185.6 643.8
03/09 17:20 21.6 86 16.31 19.2 19 24 1020.3 0 35.5 36.8 68.3 180.3 194.1 673.6
03/09 17:10 21.5 83 15.65 18.5 20 24 1020.3 0 34.1 35.7 65.3 172.5 184.5 639.9
03/09 17:00 21.8 83 15.92 18.8 19 24 1020.3 0 34.7 36.0 66.3 175.1 187.7 651.4
03/09 16:50 22 80 15.53 18.4 19 22 1020.2 0 33.8 35.2 64.3 169.9 181.4 629.5
03/09 16:40 22.1 79 15.42 18.3 17 20 1020.2 0 33.6 35.0 63.8 168.4 179.6 623.0
03/09 16:30 22.2 78 15.31 18.2 13 19 1020.3 0 33.3 34.8 63.2 166.8 177.8 616.6
03/09 16:20 22.5 78 15.58 18.5 13 15 1020.3 0 33.9 35.1 64.2 169.4 181.0 628.0
03/09 16:10 22.6 76 15.27 18.2 11 15 1020.3 0 33.2 34.5 62.7 165.5 176.2 611.4
03/09 16:00 22.9 77 15.74 18.7 11 15 1020.4 0 34.2 35.2 64.5 170.4 182.4 632.9
03/09 15:50 22.9 75 15.33 18.2 11 17 1020.4 0 33.3 34.5 62.7 165.6 176.4 612.1
03/09 15:40 23 76 15.62 18.5 11 17 1020.4 0 33.9 35.0 63.9 168.8 180.4 626.0
03/09 15:30 23.4 75 15.77 18.7 11 15 1020.3 0 34.2 35.1 64.3 169.7 181.6 630.3
03/09 15:20 23.5 74 15.65 18.6 11 15 1020.4 0 33.9 34.8 63.6 168.1 179.6 623.4
03/09 15:10 23.3 75 15.68 18.6 11 17 1020.4 0 34.0 35.0 63.9 168.9 180.6 626.6
03/09 15:00 23.3 74 15.47 18.4 13 17 1020.5 0 33.6 34.6 63.0 166.4 177.5 616.0
03/09 14:50 23.5 72 15.23 18.2 11 15 1020.5 0 33.1 34.1 61.8 163.2 173.6 602.4
03/09 14:40 23.7 72 15.4 18.4 11 15 1020.6 0 33.4 34.3 62.4 164.7 175.6 609.3
03/09 14:30 23.9 70 15.14 18.1 11 15 1020.7 0 32.8 33.8 61.1 161.3 171.4 594.9
03/09 14:20 23.7 73 15.61 18.6 13 17 1020.7 0 33.8 34.7 63.3 167.2 178.6 619.9
03/09 14:10 24.5 71 15.89 18.9 13 17 1020.8 0 34.4 34.9 63.9 168.8 180.8 627.5
03/09 14:00 23.8 72 15.49 18.4 13 19 1020.8 0 33.6 34.5 62.7 165.6 176.7 613.1
03/09 13:50 24.2 71 15.62 18.6 13 17 1021.1 0 33.8 34.5 63.0 166.3 177.7 616.6
03/09 13:40 24.1 70 15.32 18.3 11 17 1021.1 0 33.2 34.0 61.8 163.0 173.6 602.4
03/09 13:30 24.4 71 15.8 18.8 13 17 1021.2 0 34.2 34.8 63.6 168.0 179.8 624.0
03/09 13:20 24.3 72 15.93 18.9 13 19 1021.3 0 34.5 35.0 64.3 169.7 181.9 631.4
03/09 13:10 24.3 71 15.71 18.7 13 17 1021.6 0 34.0 34.7 63.3 167.2 178.8 620.5
03/09 13:00 24 70 15.23 18.2 13 19 1021.6 0 33.0 33.9 61.5 162.2 172.6 599.0
03/09 12:50 24.4 70 15.58 18.6 11 17 1021.7 0 33.7 34.4 62.7 165.5 176.7 613.3
03/09 12:40 24.4 71 15.8 18.8 13 17 1021.7 0 34.2 34.8 63.6 168.0 179.9 624.2
03/09 12:30 23.9 71 15.36 18.3 13 17 1021.9 0 33.3 34.2 62.1 164.0 174.7 606.3
03/09 12:20 24.2 70 15.4 18.4 13 15 1022.1 0 33.4 34.2 62.1 163.9 174.6 606.1
03/09 12:10 24.3 70 15.49 18.5 13 17 1022.3 0 33.5 34.3 62.4 164.7 175.7 609.8
03/09 12:00 23.6 71 15.1 18 13 19 1022.4 0 32.8 33.9 61.3 161.7 171.8 595.9
03/09 11:50 23.9 72 15.58 18.5 15 19 1022.5 0 33.8 34.6 63.1 166.7 178.0 617.6
03/09 11:40 23.5 69 14.59 17.5 13 19 1022.7 0 31.7 33.1 59.1 156.1 164.8 571.6
03/09 11:30 23.7 71 15.19 18.1 13 20 1022.8 0 32.9 34.0 61.6 162.6 172.9 599.8
03/09 11:20 23.6 70 14.89 17.8 15 20 1022.9 0 32.3 33.6 60.4 159.3 168.8 585.7
03/09 11:10 24.1 71 15.53 18.5 13 17 1023.1 0 33.6 34.5 62.8 165.7 176.9 613.8
03/09 11:00 23.9 69 14.93 17.9 15 20 1023.4 0 32.4 33.5 60.3 159.2 168.8 585.7
03/09 10:50 23.5 70 14.8 17.7 13 19 1023.5 0 32.1 33.5 60.1 158.6 167.9 582.3
03/09 10:40 24.3 70 15.49 18.5 15 20 1023.7 0 33.5 34.4 62.5 164.9 175.9 610.4
03/09 10:30 23.5 70 14.8 17.7 17 22 1023.8 0 32.1 33.5 60.1 158.6 167.9 582.4
03/09 10:20 23.6 70 14.89 17.8 15 20 1023.9 0 32.3 33.6 60.4 159.5 169.0 586.2
03/09 10:10 23.1 71 14.68 17.6 15 20 1023.9 0 31.9 33.4 59.9 158.1 167.1 579.5
03/09 10:00 23.6 70 14.89 17.8 15 20 1024 0 32.3 33.6 60.4 159.5 169.0 586.2
03/09 09:50 23.1 71 14.68 17.6 15 20 1023.9 0 31.9 33.4 59.9 158.1 167.1 579.5
03/09 09:40 23.2 70 14.55 17.4 13 17 1023.9 0 31.6 33.2 59.3 156.4 165.0 572.4
03/09 09:30 23.1 71 14.68 17.6 13 19 1023.9 0 31.9 33.4 59.9 158.1 167.1 579.5
03/09 09:20 23.2 70 14.55 17.4 13 17 1023.8 0 31.6 33.2 59.3 156.3 165.0 572.3
03/09 09:10 23.2 71 14.76 17.7 11 17 1023.7 0 32.1 33.5 60.2 158.8 168.0 582.7
03/09 09:00 23.3 71 14.84 17.7 11 17 1023.7 0 32.2 33.6 60.4 159.5 168.9 585.9
03/09 08:50 23.2 72 14.97 17.9 13 17 1023.7 0 32.5 33.9 61.1 161.2 171.0 593.1
03/09 08:40 23 72 14.8 17.7 11 19 1023.6 0 32.2 33.7 60.5 159.6 169.0 586.1
03/09 08:30 22.9 73 14.92 17.8 9 15 1023.5 0 32.4 33.9 61.1 161.2 170.9 592.8
03/09 08:20 22.9 74 15.12 18 11 17 1023.4 0 32.9 34.3 62.0 163.5 173.8 602.8
03/09 08:10 22.9 75 15.33 18.2 9 15 1023.4 0 33.3 34.6 62.9 166.0 176.8 613.4
03/09 08:00 22.5 75 14.98 17.8 11 15 1023.3 0 32.6 34.2 61.7 162.7 172.6 598.9
03/09 07:50 22.3 75 14.81 17.7 11 15 1023.2 0 32.3 33.9 61.1 161.1 170.6 591.8
03/09 07:40 21.9 75 14.47 17.3 9 15 1023.1 0 31.6 33.5 59.9 158.0 166.6 577.7
03/09 07:30 21.9 75 14.47 17.3 9 13 1022.9 0 31.6 33.5 59.9 157.9 166.6 577.7
03/09 07:20 21.6 77 14.6 17.4 9 13 1022.8 0 31.9 33.8 60.7 160.1 169.1 586.4
03/09 07:10 21.4 78 14.62 17.4 11 13 1022.6 0 31.9 33.9 60.9 160.7 169.8 588.9
03/09 07:00 21.3 78 14.54 17.3 11 17 1022.5 0 31.8 33.8 60.6 159.9 168.9 585.5
03/09 06:50 21.2 80 14.82 17.6 9 13 1022.5 0 32.4 34.4 61.9 163.5 173.2 600.5
03/09 06:40 20.8 81 14.67 17.4 9 13 1022.4 0 32.1 34.3 61.6 162.5 171.9 596.0
03/09 06:30 20.4 82 14.5 17.2 11 15 1022.4 0 31.7 34.1 61.1 161.3 170.3 590.4
03/09 06:20 20.2 85 14.86 17.6 11 17 1022.2 0 32.5 34.8 62.9 166.1 176.0 610.4
03/09 06:10 20 84 14.52 17.2 9 15 1022.2 0 31.8 34.3 61.5 162.4 171.5 594.4
03/09 06:00 19.8 85 14.52 17.2 11 15 1022.1 0 31.8 34.4 61.7 162.8 171.9 595.9
03/09 05:50 19.7 84 14.26 16.9 9 13 1022 0 31.3 33.9 60.6 159.9 168.3 583.3
03/09 05:40 19.8 84 14.35 17 7 11 1022 0 31.5 34.1 60.9 160.7 169.4 587.1
03/09 05:30 19.8 83 14.18 16.8 9 13 1021.9 0 31.1 33.7 60.2 158.7 166.9 578.4
03/09 05:20 19.8 84 14.35 17 7 11 1021.8 0 31.5 34.1 60.9 160.7 169.4 587.0
03/09 05:10 20 81 14 16.6 9 13 1021.8 0 30.7 33.3 59.2 156.1 163.8 567.7
03/09 05:00 20 83 14.34 17 9 13 1021.7 0 31.4 33.9 60.7 160.2 168.8 585.0
03/09 04:50 20 83 14.34 17 9 13 1021.6 0 31.4 33.9 60.7 160.1 168.7 584.9
03/09 04:40 20 83 14.34 17 9 13 1021.5 0 31.4 33.9 60.7 160.1 168.7 584.9
03/09 04:30 19.8 83 14.18 16.8 11 15 1021.4 0 31.1 33.7 60.1 158.6 166.8 578.2
03/09 04:20 19.8 83 14.18 16.8 9 15 1021.4 0 31.1 33.7 60.1 158.6 166.8 578.2
03/09 04:10 20 84 14.52 17.2 11 17 1021.3 0 31.8 34.3 61.5 162.3 171.4 594.0
03/09 04:00 20.1 85 14.77 17.5 13 17 1021.2 0 32.4 34.7 62.5 165.0 174.8 606.1
03/09 03:50 20.1 84 14.6 17.3 15 19 1021.1 0 32.0 34.4 61.8 163.0 172.3 597.3
03/09 03:40 20.1 84 14.6 17.3 15 19 1021.1 0 32.0 34.4 61.8 163.0 172.3 597.3
03/09 03:30 20.2 84 14.69 17.4 15 19 1021 0 32.2 34.5 62.1 163.8 173.4 601.1
03/09 03:20 20.2 84 14.69 17.4 15 19 1021.1 0 32.2 34.5 62.1 163.8 173.4 601.1
03/09 03:10 20.2 83 14.51 17.2 13 19 1021.2 0 31.8 34.2 61.3 161.7 170.7 591.9
03/09 03:00 20.2 84 14.69 17.4 13 17 1021.2 0 32.2 34.5 62.1 163.9 173.4 601.2
03/09 02:50 20.2 83 14.51 17.2 13 17 1021.2 0 31.8 34.2 61.3 161.7 170.7 591.9

Last Refresh: 03-Sep-2026 19:03:52

Bureau of Meteorology